sensor_id;sensor_type;location;lat;lon;timestamp;P1;durP1;ratioP1;P2;durP2;ratioP2
68310;SDS011;55157;51.036;17.058;2023-09-19T00:01:59;6.73;;;2.43;;
68310;SDS011;55157;51.036;17.058;2023-09-19T00:04:26;8.68;;;2.72;;
68310;SDS011;55157;51.036;17.058;2023-09-19T00:06:51;7.50;;;2.35;;
68310;SDS011;55157;51.036;17.058;2023-09-19T00:09:16;7.85;;;2.33;;
68310;SDS011;55157;51.036;17.058;2023-09-19T00:11:41;6.90;;;2.13;;
68310;SDS011;55157;51.036;17.058;2023-09-19T00:14:07;6.63;;;2.20;;
68310;SDS011;55157;51.036;17.058;2023-09-19T00:16:32;10.10;;;2.55;;
68310;SDS011;55157;51.036;17.058;2023-09-19T00:18:58;7.22;;;2.33;;
68310;SDS011;55157;51.036;17.058;2023-09-19T00:21:25;4.30;;;1.80;;
68310;SDS011;55157;51.036;17.058;2023-09-19T00:23:50;4.47;;;1.98;;
68310;SDS011;55157;51.036;17.058;2023-09-19T00:26:15;8.60;;;2.10;;
68310;SDS011;55157;51.036;17.058;2023-09-19T00:28:40;7.03;;;1.43;;
68310;SDS011;55157;51.036;17.058;2023-09-19T00:31:07;4.47;;;1.90;;
68310;SDS011;55157;51.036;17.058;2023-09-19T00:33:32;8.43;;;2.30;;
68310;SDS011;55157;51.036;17.058;2023-09-19T00:35:58;4.90;;;1.90;;
68310;SDS011;55157;51.036;17.058;2023-09-19T00:38:24;8.45;;;2.47;;
68310;SDS011;55157;51.036;17.058;2023-09-19T00:40:50;4.03;;;1.67;;
68310;SDS011;55157;51.036;17.058;2023-09-19T00:43:15;3.92;;;2.00;;
68310;SDS011;55157;51.036;17.058;2023-09-19T00:45:42;2.47;;;1.70;;
68310;SDS011;55157;51.036;17.058;2023-09-19T00:48:07;6.93;;;1.70;;
68310;SDS011;55157;51.036;17.058;2023-09-19T00:50:33;4.65;;;1.70;;
68310;SDS011;55157;51.036;17.058;2023-09-19T00:52:59;4.03;;;1.92;;
68310;SDS011;55157;51.036;17.058;2023-09-19T00:55:25;12.25;;;2.03;;
68310;SDS011;55157;51.036;17.058;2023-09-19T00:57:51;6.78;;;1.40;;
68310;SDS011;55157;51.036;17.058;2023-09-19T01:00:16;4.40;;;1.77;;
68310;SDS011;55157;51.036;17.058;2023-09-19T01:02:42;6.30;;;1.67;;
68310;SDS011;55157;51.036;17.058;2023-09-19T01:05:08;7.75;;;2.20;;
68310;SDS011;55157;51.036;17.058;2023-09-19T01:07:33;4.13;;;1.75;;
68310;SDS011;55157;51.036;17.058;2023-09-19T01:09:58;3.60;;;1.90;;
68310;SDS011;55157;51.036;17.058;2023-09-19T01:12:27;4.55;;;1.88;;
68310;SDS011;55157;51.036;17.058;2023-09-19T01:14:55;8.05;;;1.90;;
68310;SDS011;55157;51.036;17.058;2023-09-19T01:17:23;7.22;;;1.85;;
68310;SDS011;55157;51.036;17.058;2023-09-19T01:20:03;3.63;;;1.63;;
68310;SDS011;55157;51.036;17.058;2023-09-19T01:22:32;4.45;;;1.50;;
68310;SDS011;55157;51.036;17.058;2023-09-19T01:25:17;4.10;;;1.67;;
68310;SDS011;55157;51.036;17.058;2023-09-19T01:27:59;6.40;;;1.95;;
68310;SDS011;55157;51.036;17.058;2023-09-19T01:30:32;5.93;;;2.20;;
68310;SDS011;55157;51.036;17.058;2023-09-19T01:32:57;11.93;;;2.08;;
68310;SDS011;55157;51.036;17.058;2023-09-19T01:35:23;8.50;;;2.20;;
68310;SDS011;55157;51.036;17.058;2023-09-19T01:37:48;6.13;;;1.83;;
68310;SDS011;55157;51.036;17.058;2023-09-19T01:40:14;7.38;;;2.55;;
68310;SDS011;55157;51.036;17.058;2023-09-19T01:42:41;12.50;;;2.70;;
68310;SDS011;55157;51.036;17.058;2023-09-19T01:45:09;6.20;;;2.15;;
68310;SDS011;55157;51.036;17.058;2023-09-19T01:47:41;3.30;;;2.25;;
68310;SDS011;55157;51.036;17.058;2023-09-19T01:50:11;5.72;;;2.45;;
68310;SDS011;55157;51.036;17.058;2023-09-19T01:52:38;8.10;;;2.13;;
68310;SDS011;55157;51.036;17.058;2023-09-19T01:55:09;5.50;;;1.98;;
68310;SDS011;55157;51.036;17.058;2023-09-19T01:57:35;5.55;;;2.05;;
68310;SDS011;55157;51.036;17.058;2023-09-19T02:00:03;6.30;;;2.13;;
68310;SDS011;55157;51.036;17.058;2023-09-19T02:02:30;4.72;;;1.70;;
68310;SDS011;55157;51.036;17.058;2023-09-19T02:04:56;4.63;;;2.00;;
68310;SDS011;55157;51.036;17.058;2023-09-19T02:07:22;4.45;;;1.95;;
68310;SDS011;55157;51.036;17.058;2023-09-19T02:09:47;3.25;;;1.60;;
68310;SDS011;55157;51.036;17.058;2023-09-19T02:12:12;8.27;;;2.13;;
68310;SDS011;55157;51.036;17.058;2023-09-19T02:14:37;7.28;;;1.73;;
68310;SDS011;55157;51.036;17.058;2023-09-19T02:17:03;7.78;;;2.28;;
68310;SDS011;55157;51.036;17.058;2023-09-19T02:19:28;3.92;;;1.90;;
68310;SDS011;55157;51.036;17.058;2023-09-19T02:21:55;5.13;;;1.80;;
68310;SDS011;55157;51.036;17.058;2023-09-19T02:24:20;8.80;;;1.83;;
68310;SDS011;55157;51.036;17.058;2023-09-19T02:26:45;4.25;;;2.10;;
68310;SDS011;55157;51.036;17.058;2023-09-19T02:29:11;5.15;;;1.75;;
68310;SDS011;55157;51.036;17.058;2023-09-19T02:31:36;6.78;;;2.20;;
68310;SDS011;55157;51.036;17.058;2023-09-19T02:34:01;6.90;;;2.27;;
68310;SDS011;55157;51.036;17.058;2023-09-19T02:36:26;6.23;;;1.90;;
68310;SDS011;55157;51.036;17.058;2023-09-19T02:38:53;6.35;;;2.00;;
68310;SDS011;55157;51.036;17.058;2023-09-19T02:41:18;6.97;;;1.80;;
68310;SDS011;55157;51.036;17.058;2023-09-19T02:43:44;4.90;;;2.08;;
68310;SDS011;55157;51.036;17.058;2023-09-19T02:46:09;6.80;;;2.22;;
68310;SDS011;55157;51.036;17.058;2023-09-19T02:48:34;7.72;;;2.30;;
68310;SDS011;55157;51.036;17.058;2023-09-19T02:50:59;4.85;;;2.60;;
68310;SDS011;55157;51.036;17.058;2023-09-19T02:53:25;5.10;;;2.05;;
68310;SDS011;55157;51.036;17.058;2023-09-19T02:55:51;4.50;;;1.95;;
68310;SDS011;55157;51.036;17.058;2023-09-19T02:58:17;7.28;;;2.33;;
68310;SDS011;55157;51.036;17.058;2023-09-19T03:00:42;4.22;;;2.13;;
68310;SDS011;55157;51.036;17.058;2023-09-19T03:03:07;5.65;;;2.08;;
68310;SDS011;55157;51.036;17.058;2023-09-19T03:05:33;8.65;;;2.15;;
68310;SDS011;55157;51.036;17.058;2023-09-19T03:07:58;4.82;;;1.90;;
68310;SDS011;55157;51.036;17.058;2023-09-19T03:10:23;9.98;;;2.70;;
68310;SDS011;55157;51.036;17.058;2023-09-19T03:12:50;7.30;;;2.55;;
68310;SDS011;55157;51.036;17.058;2023-09-19T03:15:15;6.55;;;2.47;;
68310;SDS011;55157;51.036;17.058;2023-09-19T03:17:42;9.15;;;2.25;;
68310;SDS011;55157;51.036;17.058;2023-09-19T03:20:08;6.18;;;2.33;;
68310;SDS011;55157;51.036;17.058;2023-09-19T03:22:33;6.63;;;2.08;;
68310;SDS011;55157;51.036;17.058;2023-09-19T03:24:58;5.25;;;2.50;;
68310;SDS011;55157;51.036;17.058;2023-09-19T03:27:24;7.70;;;2.38;;
68310;SDS011;55157;51.036;17.058;2023-09-19T03:29:50;3.28;;;2.15;;
68310;SDS011;55157;51.036;17.058;2023-09-19T03:32:16;6.40;;;2.97;;
68310;SDS011;55157;51.036;17.058;2023-09-19T03:34:41;6.63;;;3.17;;
68310;SDS011;55157;51.036;17.058;2023-09-19T03:37:06;7.30;;;2.30;;
68310;SDS011;55157;51.036;17.058;2023-09-19T03:39:31;7.20;;;2.60;;
68310;SDS011;55157;51.036;17.058;2023-09-19T03:41:56;9.38;;;2.78;;
68310;SDS011;55157;51.036;17.058;2023-09-19T03:44:22;8.23;;;2.47;;
68310;SDS011;55157;51.036;17.058;2023-09-19T03:46:49;7.22;;;2.17;;
68310;SDS011;55157;51.036;17.058;2023-09-19T03:49:14;4.30;;;2.03;;
68310;SDS011;55157;51.036;17.058;2023-09-19T03:51:39;8.65;;;2.72;;
68310;SDS011;55157;51.036;17.058;2023-09-19T03:54:04;3.20;;;1.50;;
68310;SDS011;55157;51.036;17.058;2023-09-19T03:56:30;6.35;;;2.00;;
68310;SDS011;55157;51.036;17.058;2023-09-19T03:58:55;4.93;;;1.70;;
68310;SDS011;55157;51.036;17.058;2023-09-19T04:01:20;3.35;;;1.85;;
68310;SDS011;55157;51.036;17.058;2023-09-19T04:03:47;4.00;;;1.95;;
68310;SDS011;55157;51.036;17.058;2023-09-19T04:06:12;8.80;;;2.50;;
68310;SDS011;55157;51.036;17.058;2023-09-19T04:08:37;3.72;;;1.67;;
68310;SDS011;55157;51.036;17.058;2023-09-19T04:11:03;4.78;;;1.90;;
68310;SDS011;55157;51.036;17.058;2023-09-19T04:13:28;4.47;;;2.28;;
68310;SDS011;55157;51.036;17.058;2023-09-19T04:15:53;5.35;;;2.63;;
68310;SDS011;55157;51.036;17.058;2023-09-19T04:18:18;11.07;;;2.35;;
68310;SDS011;55157;51.036;17.058;2023-09-19T04:20:48;4.95;;;1.88;;
68310;SDS011;55157;51.036;17.058;2023-09-19T04:23:14;6.88;;;2.28;;
68310;SDS011;55157;51.036;17.058;2023-09-19T04:25:40;8.13;;;2.50;;
68310;SDS011;55157;51.036;17.058;2023-09-19T04:28:05;9.88;;;2.50;;
68310;SDS011;55157;51.036;17.058;2023-09-19T04:30:30;4.17;;;1.70;;
68310;SDS011;55157;51.036;17.058;2023-09-19T04:32:55;4.28;;;1.73;;
68310;SDS011;55157;51.036;17.058;2023-09-19T04:35:21;9.43;;;2.08;;
68310;SDS011;55157;51.036;17.058;2023-09-19T04:37:47;6.97;;;2.20;;
68310;SDS011;55157;51.036;17.058;2023-09-19T04:40:13;11.32;;;2.67;;
68310;SDS011;55157;51.036;17.058;2023-09-19T04:42:38;3.72;;;2.13;;
68310;SDS011;55157;51.036;17.058;2023-09-19T04:47:32;6.25;;;2.40;;
68310;SDS011;55157;51.036;17.058;2023-09-19T04:49:57;5.45;;;1.95;;
68310;SDS011;55157;51.036;17.058;2023-09-19T04:52:22;5.18;;;2.00;;
68310;SDS011;55157;51.036;17.058;2023-09-19T04:54:49;5.05;;;2.22;;
68310;SDS011;55157;51.036;17.058;2023-09-19T04:57:14;4.03;;;1.92;;
68310;SDS011;55157;51.036;17.058;2023-09-19T04:59:39;3.33;;;1.93;;
68310;SDS011;55157;51.036;17.058;2023-09-19T05:02:05;5.63;;;2.20;;
68310;SDS011;55157;51.036;17.058;2023-09-19T05:04:30;4.53;;;2.10;;
68310;SDS011;55157;51.036;17.058;2023-09-19T05:06:55;4.38;;;2.13;;
68310;SDS011;55157;51.036;17.058;2023-09-19T05:12:02;4.35;;;2.08;;
68310;SDS011;55157;51.036;17.058;2023-09-19T05:14:27;5.10;;;1.67;;
68310;SDS011;55157;51.036;17.058;2023-09-19T05:16:52;3.93;;;2.00;;
68310;SDS011;55157;51.036;17.058;2023-09-19T05:19:18;4.60;;;2.35;;
68310;SDS011;55157;51.036;17.058;2023-09-19T05:21:43;4.95;;;2.08;;
68310;SDS011;55157;51.036;17.058;2023-09-19T05:24:08;4.72;;;2.15;;
68310;SDS011;55157;51.036;17.058;2023-09-19T05:26:33;4.72;;;2.30;;
68310;SDS011;55157;51.036;17.058;2023-09-19T05:29:00;5.97;;;2.63;;
68310;SDS011;55157;51.036;17.058;2023-09-19T05:31:25;8.52;;;2.70;;
68310;SDS011;55157;51.036;17.058;2023-09-19T05:33:50;3.35;;;2.00;;
68310;SDS011;55157;51.036;17.058;2023-09-19T05:36:16;4.22;;;2.47;;
68310;SDS011;55157;51.036;17.058;2023-09-19T05:38:41;6.22;;;2.53;;
68310;SDS011;55157;51.036;17.058;2023-09-19T05:41:06;8.03;;;2.83;;
68310;SDS011;55157;51.036;17.058;2023-09-19T05:43:31;6.20;;;2.25;;
68310;SDS011;55157;51.036;17.058;2023-09-19T05:46:00;6.82;;;2.53;;
68310;SDS011;55157;51.036;17.058;2023-09-19T05:48:26;7.57;;;2.60;;
68310;SDS011;55157;51.036;17.058;2023-09-19T05:50:51;9.40;;;3.03;;
68310;SDS011;55157;51.036;17.058;2023-09-19T05:53:16;6.50;;;2.10;;
68310;SDS011;55157;51.036;17.058;2023-09-19T05:55:41;6.97;;;2.53;;
68310;SDS011;55157;51.036;17.058;2023-09-19T05:58:06;5.72;;;2.03;;
68310;SDS011;55157;51.036;17.058;2023-09-19T06:00:32;7.75;;;2.33;;
68310;SDS011;55157;51.036;17.058;2023-09-19T06:02:59;8.18;;;2.90;;
68310;SDS011;55157;51.036;17.058;2023-09-19T06:05:24;4.03;;;2.08;;
68310;SDS011;55157;51.036;17.058;2023-09-19T06:07:50;9.80;;;3.35;;
68310;SDS011;55157;51.036;17.058;2023-09-19T06:10:15;11.15;;;2.72;;
68310;SDS011;55157;51.036;17.058;2023-09-19T06:12:40;9.98;;;3.38;;
68310;SDS011;55157;51.036;17.058;2023-09-19T06:15:06;12.32;;;3.10;;
68310;SDS011;55157;51.036;17.058;2023-09-19T06:17:31;9.18;;;2.90;;
68310;SDS011;55157;51.036;17.058;2023-09-19T06:19:58;6.78;;;2.85;;
68310;SDS011;55157;51.036;17.058;2023-09-19T06:22:23;10.98;;;3.22;;
68310;SDS011;55157;51.036;17.058;2023-09-19T06:24:48;6.30;;;3.15;;
68310;SDS011;55157;51.036;17.058;2023-09-19T06:27:13;14.88;;;3.25;;
68310;SDS011;55157;51.036;17.058;2023-09-19T06:29:39;7.63;;;3.00;;
68310;SDS011;55157;51.036;17.058;2023-09-19T06:32:06;6.28;;;2.90;;
68310;SDS011;55157;51.036;17.058;2023-09-19T06:34:31;8.48;;;3.08;;
68310;SDS011;55157;51.036;17.058;2023-09-19T06:36:58;6.43;;;2.65;;
68310;SDS011;55157;51.036;17.058;2023-09-19T06:39:23;9.75;;;3.03;;
68310;SDS011;55157;51.036;17.058;2023-09-19T06:41:49;7.28;;;2.53;;
68310;SDS011;55157;51.036;17.058;2023-09-19T06:44:14;5.22;;;2.53;;
68310;SDS011;55157;51.036;17.058;2023-09-19T06:46:39;12.55;;;2.80;;
68310;SDS011;55157;51.036;17.058;2023-09-19T06:49:04;8.75;;;3.17;;
68310;SDS011;55157;51.036;17.058;2023-09-19T06:51:30;7.57;;;2.65;;
68310;SDS011;55157;51.036;17.058;2023-09-19T06:53:56;7.93;;;2.63;;
68310;SDS011;55157;51.036;17.058;2023-09-19T06:56:21;6.45;;;2.70;;
68310;SDS011;55157;51.036;17.058;2023-09-19T06:58:47;9.57;;;2.33;;
68310;SDS011;55157;51.036;17.058;2023-09-19T07:01:12;6.75;;;1.98;;
68310;SDS011;55157;51.036;17.058;2023-09-19T07:03:37;6.80;;;2.20;;
68310;SDS011;55157;51.036;17.058;2023-09-19T07:06:03;14.27;;;2.30;;
68310;SDS011;55157;51.036;17.058;2023-09-19T07:08:28;3.78;;;2.08;;
68310;SDS011;55157;51.036;17.058;2023-09-19T07:10:56;4.32;;;2.10;;
68310;SDS011;55157;51.036;17.058;2023-09-19T07:13:21;7.00;;;2.20;;
68310;SDS011;55157;51.036;17.058;2023-09-19T07:15:46;5.40;;;2.40;;
68310;SDS011;55157;51.036;17.058;2023-09-19T07:18:12;7.30;;;2.15;;
68310;SDS011;55157;51.036;17.058;2023-09-19T07:20:37;7.53;;;2.30;;
68310;SDS011;55157;51.036;17.058;2023-09-19T07:23:03;10.65;;;2.30;;
68310;SDS011;55157;51.036;17.058;2023-09-19T07:25:28;11.32;;;2.25;;
68310;SDS011;55157;51.036;17.058;2023-09-19T07:27:56;8.85;;;2.45;;
68310;SDS011;55157;51.036;17.058;2023-09-19T07:30:21;7.03;;;1.95;;
68310;SDS011;55157;51.036;17.058;2023-09-19T07:32:47;10.32;;;1.90;;
68310;SDS011;55157;51.036;17.058;2023-09-19T07:35:12;5.28;;;1.90;;
68310;SDS011;55157;51.036;17.058;2023-09-19T07:37:37;6.37;;;2.17;;
68310;SDS011;55157;51.036;17.058;2023-09-19T07:40:02;2.83;;;1.60;;
68310;SDS011;55157;51.036;17.058;2023-09-19T07:42:28;4.55;;;1.70;;
68310;SDS011;55157;51.036;17.058;2023-09-19T07:44:54;6.90;;;1.57;;
68310;SDS011;55157;51.036;17.058;2023-09-19T07:47:19;3.55;;;1.60;;
68310;SDS011;55157;51.036;17.058;2023-09-19T07:49:46;11.77;;;1.73;;
68310;SDS011;55157;51.036;17.058;2023-09-19T07:52:11;5.15;;;1.50;;
68310;SDS011;55157;51.036;17.058;2023-09-19T07:54:36;5.95;;;1.63;;
68310;SDS011;55157;51.036;17.058;2023-09-19T07:57:02;11.88;;;1.77;;
68310;SDS011;55157;51.036;17.058;2023-09-19T07:59:27;2.75;;;1.40;;
68310;SDS011;55157;51.036;17.058;2023-09-19T08:01:54;3.40;;;1.20;;
68310;SDS011;55157;51.036;17.058;2023-09-19T08:04:19;5.13;;;1.60;;
68310;SDS011;55157;51.036;17.058;2023-09-19T08:06:44;10.77;;;1.98;;
68310;SDS011;55157;51.036;17.058;2023-09-19T08:09:09;13.20;;;2.22;;
68310;SDS011;55157;51.036;17.058;2023-09-19T08:11:35;2.50;;;1.57;;
68310;SDS011;55157;51.036;17.058;2023-09-19T08:14:00;7.33;;;1.80;;
68310;SDS011;55157;51.036;17.058;2023-09-19T08:16:25;9.23;;;1.75;;
68310;SDS011;55157;51.036;17.058;2023-09-19T08:18:52;3.92;;;1.25;;
68310;SDS011;55157;51.036;17.058;2023-09-19T08:21:17;5.82;;;1.80;;
68310;SDS011;55157;51.036;17.058;2023-09-19T08:23:42;3.70;;;1.60;;
68310;SDS011;55157;51.036;17.058;2023-09-19T08:26:08;5.97;;;1.63;;
68310;SDS011;55157;51.036;17.058;2023-09-19T08:28:33;3.22;;;1.70;;
68310;SDS011;55157;51.036;17.058;2023-09-19T08:31:01;5.25;;;1.67;;
68310;SDS011;55157;51.036;17.058;2023-09-19T08:33:26;3.60;;;1.55;;
68310;SDS011;55157;51.036;17.058;2023-09-19T08:35:53;5.45;;;1.50;;
68310;SDS011;55157;51.036;17.058;2023-09-19T08:38:20;3.75;;;1.52;;
68310;SDS011;55157;51.036;17.058;2023-09-19T08:40:45;3.00;;;1.53;;
68310;SDS011;55157;51.036;17.058;2023-09-19T08:43:11;3.17;;;1.63;;
68310;SDS011;55157;51.036;17.058;2023-09-19T08:45:36;5.32;;;1.50;;
68310;SDS011;55157;51.036;17.058;2023-09-19T08:48:03;6.20;;;1.90;;
68310;SDS011;55157;51.036;17.058;2023-09-19T08:50:36;2.47;;;1.73;;
68310;SDS011;55157;51.036;17.058;2023-09-19T08:53:06;4.82;;;1.63;;
68310;SDS011;55157;51.036;17.058;2023-09-19T08:55:35;2.78;;;1.50;;
68310;SDS011;55157;51.036;17.058;2023-09-19T08:58:01;5.45;;;1.83;;
68310;SDS011;55157;51.036;17.058;2023-09-19T09:00:26;8.13;;;1.95;;
68310;SDS011;55157;51.036;17.058;2023-09-19T09:02:52;3.08;;;1.85;;
68310;SDS011;55157;51.036;17.058;2023-09-19T09:05:18;3.63;;;1.48;;
68310;SDS011;55157;51.036;17.058;2023-09-19T09:07:43;5.85;;;1.40;;
68310;SDS011;55157;51.036;17.058;2023-09-19T09:10:12;2.75;;;1.58;;
68310;SDS011;55157;51.036;17.058;2023-09-19T09:12:38;4.78;;;1.65;;
68310;SDS011;55157;51.036;17.058;2023-09-19T09:15:03;3.10;;;1.50;;
68310;SDS011;55157;51.036;17.058;2023-09-19T09:17:28;3.05;;;1.60;;
68310;SDS011;55157;51.036;17.058;2023-09-19T09:19:54;3.78;;;1.80;;
68310;SDS011;55157;51.036;17.058;2023-09-19T09:22:19;3.20;;;1.45;;
68310;SDS011;55157;51.036;17.058;2023-09-19T09:24:51;2.85;;;1.60;;
68310;SDS011;55157;51.036;17.058;2023-09-19T09:27:18;3.85;;;1.38;;
68310;SDS011;55157;51.036;17.058;2023-09-19T09:29:43;2.20;;;1.40;;
68310;SDS011;55157;51.036;17.058;2023-09-19T09:32:19;4.20;;;1.90;;
68310;SDS011;55157;51.036;17.058;2023-09-19T09:34:44;6.50;;;2.10;;
68310;SDS011;55157;51.036;17.058;2023-09-19T09:37:12;9.55;;;1.70;;
68310;SDS011;55157;51.036;17.058;2023-09-19T09:39:37;4.22;;;1.77;;
68310;SDS011;55157;51.036;17.058;2023-09-19T09:42:03;2.72;;;1.90;;
68310;SDS011;55157;51.036;17.058;2023-09-19T09:44:30;4.35;;;2.00;;
68310;SDS011;55157;51.036;17.058;2023-09-19T09:46:55;4.78;;;1.40;;
68310;SDS011;55157;51.036;17.058;2023-09-19T09:49:22;4.43;;;1.90;;
68310;SDS011;55157;51.036;17.058;2023-09-19T09:51:49;3.80;;;1.67;;
68310;SDS011;55157;51.036;17.058;2023-09-19T09:54:15;6.07;;;1.45;;
68310;SDS011;55157;51.036;17.058;2023-09-19T09:56:53;2.63;;;1.58;;
68310;SDS011;55157;51.036;17.058;2023-09-19T09:59:18;2.03;;;1.30;;
68310;SDS011;55157;51.036;17.058;2023-09-19T10:01:48;2.30;;;1.60;;
68310;SDS011;55157;51.036;17.058;2023-09-19T10:04:15;9.60;;;1.50;;
68310;SDS011;55157;51.036;17.058;2023-09-19T10:06:51;5.65;;;2.20;;
68310;SDS011;55157;51.036;17.058;2023-09-19T10:09:17;3.05;;;1.20;;
68310;SDS011;55157;51.036;17.058;2023-09-19T10:11:42;3.90;;;1.30;;
68310;SDS011;55157;51.036;17.058;2023-09-19T10:14:08;7.95;;;1.67;;
68310;SDS011;55157;51.036;17.058;2023-09-19T10:16:33;3.33;;;1.45;;
68310;SDS011;55157;51.036;17.058;2023-09-19T10:19:01;3.78;;;1.35;;
68310;SDS011;55157;51.036;17.058;2023-09-19T10:21:27;4.78;;;1.60;;
68310;SDS011;55157;51.036;17.058;2023-09-19T10:23:53;2.45;;;1.67;;
68310;SDS011;55157;51.036;17.058;2023-09-19T10:26:18;1.70;;;1.30;;
68310;SDS011;55157;51.036;17.058;2023-09-19T10:28:45;2.72;;;1.50;;
68310;SDS011;55157;51.036;17.058;2023-09-19T10:31:11;6.93;;;1.50;;
68310;SDS011;55157;51.036;17.058;2023-09-19T10:33:37;1.77;;;1.30;;
68310;SDS011;55157;51.036;17.058;2023-09-19T10:36:04;2.50;;;1.38;;
68310;SDS011;55157;51.036;17.058;2023-09-19T10:38:30;3.70;;;1.30;;
68310;SDS011;55157;51.036;17.058;2023-09-19T10:40:56;2.22;;;1.35;;
68310;SDS011;55157;51.036;17.058;2023-09-19T10:43:29;4.38;;;1.25;;
68310;SDS011;55157;51.036;17.058;2023-09-19T10:45:55;5.53;;;1.60;;
68310;SDS011;55157;51.036;17.058;2023-09-19T10:48:22;3.47;;;1.52;;
68310;SDS011;55157;51.036;17.058;2023-09-19T10:50:48;5.72;;;1.50;;
68310;SDS011;55157;51.036;17.058;2023-09-19T10:53:16;3.42;;;1.60;;
68310;SDS011;55157;51.036;17.058;2023-09-19T10:55:48;2.47;;;1.40;;
68310;SDS011;55157;51.036;17.058;2023-09-19T10:58:14;1.63;;;1.17;;
68310;SDS011;55157;51.036;17.058;2023-09-19T11:00:53;2.78;;;1.05;;
68310;SDS011;55157;51.036;17.058;2023-09-19T11:03:21;3.00;;;1.60;;
68310;SDS011;55157;51.036;17.058;2023-09-19T11:06:03;2.00;;;1.10;;
68310;SDS011;55157;51.036;17.058;2023-09-19T11:08:30;2.22;;;1.10;;
68310;SDS011;55157;51.036;17.058;2023-09-19T11:10:55;3.75;;;1.35;;
68310;SDS011;55157;51.036;17.058;2023-09-19T11:13:23;3.92;;;1.30;;
68310;SDS011;55157;51.036;17.058;2023-09-19T11:18:51;2.97;;;0.82;;
68310;SDS011;55157;51.036;17.058;2023-09-19T11:26:45;3.95;;;1.02;;
68310;SDS011;55157;51.036;17.058;2023-09-19T11:29:24;2.22;;;1.10;;
68310;SDS011;55157;51.036;17.058;2023-09-19T11:31:49;3.53;;;1.10;;
68310;SDS011;55157;51.036;17.058;2023-09-19T11:36:58;3.67;;;1.00;;
68310;SDS011;55157;51.036;17.058;2023-09-19T11:39:26;3.67;;;1.10;;
68310;SDS011;55157;51.036;17.058;2023-09-19T11:41:53;1.23;;;0.80;;
68310;SDS011;55157;51.036;17.058;2023-09-19T11:44:31;1.95;;;0.75;;
68310;SDS011;55157;51.036;17.058;2023-09-19T11:46:56;1.88;;;1.02;;
68310;SDS011;55157;51.036;17.058;2023-09-19T11:49:25;4.20;;;1.08;;
68310;SDS011;55157;51.036;17.058;2023-09-19T11:51:51;2.97;;;0.80;;
68310;SDS011;55157;51.036;17.058;2023-09-19T11:54:16;2.20;;;1.00;;
68310;SDS011;55157;51.036;17.058;2023-09-19T11:56:41;2.67;;;1.77;;
68310;SDS011;55157;51.036;17.058;2023-09-19T11:59:09;1.10;;;0.68;;
68310;SDS011;55157;51.036;17.058;2023-09-19T12:01:34;2.80;;;1.00;;
68310;SDS011;55157;51.036;17.058;2023-09-19T12:04:00;3.40;;;1.13;;
68310;SDS011;55157;51.036;17.058;2023-09-19T12:06:26;4.40;;;0.90;;
68310;SDS011;55157;51.036;17.058;2023-09-19T12:08:51;1.60;;;0.95;;
68310;SDS011;55157;51.036;17.058;2023-09-19T12:11:17;3.38;;;1.17;;
68310;SDS011;55157;51.036;17.058;2023-09-19T12:13:43;4.38;;;1.05;;
68310;SDS011;55157;51.036;17.058;2023-09-19T12:16:12;3.10;;;0.90;;
68310;SDS011;55157;51.036;17.058;2023-09-19T12:18:37;5.90;;;0.93;;
68310;SDS011;55157;51.036;17.058;2023-09-19T12:21:03;3.00;;;1.40;;
68310;SDS011;55157;51.036;17.058;2023-09-19T12:23:28;2.90;;;0.70;;
68310;SDS011;55157;51.036;17.058;2023-09-19T12:25:54;2.53;;;1.00;;
68310;SDS011;55157;51.036;17.058;2023-09-19T12:28:19;4.30;;;1.00;;
68310;SDS011;55157;51.036;17.058;2023-09-19T12:30:44;1.45;;;0.90;;
68310;SDS011;55157;51.036;17.058;2023-09-19T12:33:16;1.47;;;0.87;;
68310;SDS011;55157;51.036;17.058;2023-09-19T12:35:41;1.95;;;1.60;;
68310;SDS011;55157;51.036;17.058;2023-09-19T12:38:06;2.23;;;1.10;;
68310;SDS011;55157;51.036;17.058;2023-09-19T12:40:32;2.67;;;1.00;;
68310;SDS011;55157;51.036;17.058;2023-09-19T12:42:57;3.45;;;1.08;;
68310;SDS011;55157;51.036;17.058;2023-09-19T12:45:22;2.38;;;1.00;;
68310;SDS011;55157;51.036;17.058;2023-09-19T12:50:33;2.20;;;1.10;;
68310;SDS011;55157;51.036;17.058;2023-09-19T12:52:58;2.08;;;1.23;;
68310;SDS011;55157;51.036;17.058;2023-09-19T12:55:24;2.60;;;1.20;;
68310;SDS011;55157;51.036;17.058;2023-09-19T12:57:59;2.05;;;1.20;;
68310;SDS011;55157;51.036;17.058;2023-09-19T13:00:31;2.78;;;1.10;;
68310;SDS011;55157;51.036;17.058;2023-09-19T13:03:16;2.03;;;1.20;;
68310;SDS011;55157;51.036;17.058;2023-09-19T13:05:49;2.15;;;1.15;;
68310;SDS011;55157;51.036;17.058;2023-09-19T13:08:18;2.97;;;1.10;;
68310;SDS011;55157;51.036;17.058;2023-09-19T13:13:23;3.80;;;1.20;;
68310;SDS011;55157;51.036;17.058;2023-09-19T13:15:52;2.28;;;1.08;;
68310;SDS011;55157;51.036;17.058;2023-09-19T13:18:17;3.80;;;1.10;;
68310;SDS011;55157;51.036;17.058;2023-09-19T13:20:42;3.87;;;1.30;;
68310;SDS011;55157;51.036;17.058;2023-09-19T13:23:25;2.13;;;1.20;;
68310;SDS011;55157;51.036;17.058;2023-09-19T13:25:50;1.52;;;1.02;;
68310;SDS011;55157;51.036;17.058;2023-09-19T13:28:16;5.47;;;1.07;;
68310;SDS011;55157;51.036;17.058;2023-09-19T13:30:41;1.67;;;1.20;;
68310;SDS011;55157;51.036;17.058;2023-09-19T13:33:06;2.77;;;1.10;;
68310;SDS011;55157;51.036;17.058;2023-09-19T13:35:32;3.65;;;0.93;;
68310;SDS011;55157;51.036;17.058;2023-09-19T13:37:57;6.10;;;1.23;;
68310;SDS011;55157;51.036;17.058;2023-09-19T13:40:23;1.60;;;0.83;;
68310;SDS011;55157;51.036;17.058;2023-09-19T13:42:49;1.42;;;0.93;;
68310;SDS011;55157;51.036;17.058;2023-09-19T13:45:14;2.67;;;1.20;;
68310;SDS011;55157;51.036;17.058;2023-09-19T13:47:39;2.47;;;1.23;;
68310;SDS011;55157;51.036;17.058;2023-09-19T13:50:05;6.20;;;1.30;;
68310;SDS011;55157;51.036;17.058;2023-09-19T13:52:30;2.13;;;1.10;;
68310;SDS011;55157;51.036;17.058;2023-09-19T13:54:56;1.30;;;0.75;;
68310;SDS011;55157;51.036;17.058;2023-09-19T13:57:23;3.85;;;0.80;;
68310;SDS011;55157;51.036;17.058;2023-09-19T13:59:48;2.25;;;1.02;;
68310;SDS011;55157;51.036;17.058;2023-09-19T14:02:13;4.30;;;1.10;;
68310;SDS011;55157;51.036;17.058;2023-09-19T14:04:38;2.92;;;1.10;;
68310;SDS011;55157;51.036;17.058;2023-09-19T14:07:04;1.60;;;1.00;;
68310;SDS011;55157;51.036;17.058;2023-09-19T14:09:29;2.92;;;0.90;;
68310;SDS011;55157;51.036;17.058;2023-09-19T14:11:54;2.88;;;1.10;;
68310;SDS011;55157;51.036;17.058;2023-09-19T14:14:21;2.20;;;1.07;;
68310;SDS011;55157;51.036;17.058;2023-09-19T14:16:46;2.05;;;1.08;;
68310;SDS011;55157;51.036;17.058;2023-09-19T14:19:12;3.88;;;1.08;;
68310;SDS011;55157;51.036;17.058;2023-09-19T14:21:37;10.57;;;1.27;;
68310;SDS011;55157;51.036;17.058;2023-09-19T14:24:02;3.70;;;0.90;;
68310;SDS011;55157;51.036;17.058;2023-09-19T14:26:28;3.80;;;1.35;;
68310;SDS011;55157;51.036;17.058;2023-09-19T14:28:53;2.10;;;1.10;;
68310;SDS011;55157;51.036;17.058;2023-09-19T14:31:20;1.40;;;0.80;;
68310;SDS011;55157;51.036;17.058;2023-09-19T14:33:45;3.72;;;0.95;;
68310;SDS011;55157;51.036;17.058;2023-09-19T14:36:10;2.80;;;1.23;;
68310;SDS011;55157;51.036;17.058;2023-09-19T14:38:36;3.25;;;1.38;;
68310;SDS011;55157;51.036;17.058;2023-09-19T14:41:02;6.70;;;1.10;;
68310;SDS011;55157;51.036;17.058;2023-09-19T14:43:27;2.70;;;1.38;;
68310;SDS011;55157;51.036;17.058;2023-09-19T14:45:53;6.88;;;1.25;;
68310;SDS011;55157;51.036;17.058;2023-09-19T14:48:19;2.90;;;1.13;;
68310;SDS011;55157;51.036;17.058;2023-09-19T14:50:44;2.85;;;1.08;;